Main page
METAR-TAF:

METAR-TAF

Airports :

Pembrey, Wales

latitude: 51-43N, longitude: 004-22W, elevation: 3 m

Current weather observation

The report was made 56 minutes ago, at 17:50 UTC
Wind 11 kt from the East/Northeast
Temperature 16°C
Humidity 51%
Pressure 1020 hPa
Visibility 10 km or more

METAR: EGOP 261750Z AUTO 07011KT 9999 // NCD 16/06 Q1020

Time: 19:46 (18:46 UTC)


TAF: missing

Weather observations and forecasts of more than 4000 airports (METAR and TAF reports).

The available stations are represented by yellow and red dots on the map.

Hover mouse over dot to see the name of the station.

Then click to see weather observations and forecasts.

To change the map : click on the green buttons with a black cross to zoom in, on the green button with a dash to zoom out, or on the green arrows for adjacent maps.


METAR-TAF: